TimePST,TemperatureF,Dew PointF,Humidity,Sea Level PressureIn,VisibilityMPH,Wind Direction,Wind SpeedMPH,Gust SpeedMPH,PrecipitationIn,Events,Conditions,WindDirDegrees,DateUTC
12:19 AM,24.8,23.0,93,29.94,10.0,SSE,4.6,-,N/A,,Scattered Clouds,160,2013-02-21 08:19:00
12:36 AM,26.6,23.0,86,29.95,10.0,SSE,4.6,-,N/A,,Mostly Cloudy,160,2013-02-21 08:36:00
12:58 AM,26.4,24.1,91,30.03,10.0,SSE,4.6,-,0.00,,Overcast,160,2013-02-21 08:58:00
1:58 AM,28.4,25.7,90,30.02,10.0,SSE,3.5,-,N/A,,Overcast,150,2013-02-21 09:58:00
2:18 AM,28.4,24.8,86,29.95,10.0,SSE,5.8,-,N/A,,Overcast,160,2013-02-21 10:18:00
2:24 AM,28.4,26.6,93,29.95,10.0,SSE,6.9,-,N/A,,Overcast,160,2013-02-21 10:24:00
2:45 AM,28.4,26.6,93,29.95,10.0,SSE,5.8,-,N/A,,Overcast,160,2013-02-21 10:45:00
2:58 AM,28.4,25.7,90,30.02,10.0,SSE,4.6,-,0.00,,Overcast,150,2013-02-21 10:58:00
2:59 AM,28.4,24.8,86,29.96,10.0,SSE,4.6,-,N/A,,Overcast,150,2013-02-21 10:59:00
3:58 AM,28.4,25.5,89,30.02,10.0,SE,6.9,-,0.00,,Overcast,130,2013-02-21 11:58:00
4:58 AM,27.1,24.6,90,30.04,10.0,SSE,4.6,-,N/A,,Clear,150,2013-02-21 12:58:00
5:30 AM,26.6,24.8,93,29.95,10.0,SSE,4.6,-,N/A,,Overcast,150,2013-02-21 13:30:00
5:43 AM,26.6,24.8,93,29.95,10.0,SSE,6.9,-,N/A,,Overcast,150,2013-02-21 13:43:00
5:58 AM,27.1,25.2,92,30.04,10.0,SSE,10.4,-,0.00,,Overcast,150,2013-02-21 13:58:00
6:58 AM,26.8,25.3,94,30.02,10.0,SSE,9.2,-,N/A,,Overcast,160,2013-02-21 14:58:00
7:49 AM,28.4,26.6,93,29.96,10.0,SSE,5.8,-,N/A,,Mostly Cloudy,160,2013-02-21 15:49:00
7:58 AM,27.7,26.2,94,30.05,10.0,South,8.1,-,N/A,,Mostly Cloudy,170,2013-02-21 15:58:00
8:03 AM,28.4,26.6,93,29.96,10.0,South,10.4,-,N/A,,Mostly Cloudy,180,2013-02-21 16:03:00
8:13 AM,28.4,26.6,93,29.96,10.0,South,10.4,-,N/A,,Overcast,190,2013-02-21 16:13:00
8:43 AM,30.2,28.4,93,29.95,10.0,South,11.5,-,N/A,,Overcast,180,2013-02-21 16:43:00
8:58 AM,29.7,28.4,95,30.04,10.0,South,10.4,-,N/A,,Overcast,180,2013-02-21 16:58:00
9:11 AM,32.0,28.4,87,29.96,10.0,South,10.4,-,N/A,,Overcast,190,2013-02-21 17:11:00
9:25 AM,32.0,28.4,87,29.96,10.0,SSW,11.5,-,N/A,,Overcast,200,2013-02-21 17:25:00
9:30 AM,32.0,30.2,93,29.95,10.0,South,10.4,-,N/A,,Overcast,190,2013-02-21 17:30:00
9:35 AM,32.0,30.2,93,29.95,10.0,South,12.7,-,N/A,,Overcast,190,2013-02-21 17:35:00
9:45 AM,32.0,30.2,93,29.96,10.0,SSW,13.8,-,N/A,,Overcast,200,2013-02-21 17:45:00
9:58 AM,31.5,30.2,95,30.03,10.0,South,10.4,-,0.00,,Overcast,190,2013-02-21 17:58:00
10:44 AM,32.0,30.2,93,29.95,10.0,South,9.2,-,N/A,,Overcast,190,2013-02-21 18:44:00
10:47 AM,32.0,30.2,93,29.95,10.0,South,6.9,-,N/A,,Overcast,190,2013-02-21 18:47:00
10:52 AM,32.0,32.0,100,29.95,10.0,South,9.2,-,N/A,,Overcast,190,2013-02-21 18:52:00
10:58 AM,31.8,30.4,94,30.03,10.0,South,9.2,-,0.00,,Overcast,190,2013-02-21 18:58:00
10:59 AM,32.0,30.2,93,29.95,10.0,South,9.2,-,N/A,,Overcast,190,2013-02-21 18:59:00
11:39 AM,32.0,32.0,100,29.94,4.0,SSW,10.4,-,N/A,Snow,Light Snow,200,2013-02-21 19:39:00
11:54 AM,32.0,32.0,100,29.94,2.5,SSW,10.4,-,N/A,Snow,Light Snow,200,2013-02-21 19:54:00
11:58 AM,31.8,30.9,96,30.02,2.5,SSW,10.4,-,0.00,Snow,Light Snow,200,2013-02-21 19:58:00
12:03 PM,32.0,32.0,100,29.94,3.0,SSW,9.2,-,N/A,Snow,Light Snow,200,2013-02-21 20:03:00
12:48 PM,32.0,32.0,100,29.93,2.0,SW,11.5,-,N/A,Snow,Light Snow,220,2013-02-21 20:48:00
12:53 PM,32.0,32.0,100,29.93,1.8,SW,12.7,-,N/A,Snow,Light Snow,220,2013-02-21 20:53:00
12:58 PM,32.0,32.0,100,30.01,1.5,SW,11.5,-,0.01,Snow,Light Snow,220,2013-02-21 20:58:00
1:08 PM,32.0,32.0,100,29.93,1.8,SW,9.2,-,N/A,Snow,Light Snow,220,2013-02-21 21:08:00
1:28 PM,32.0,32.0,100,29.93,2.0,SW,9.2,-,N/A,Snow,Light Snow,220,2013-02-21 21:28:00
1:33 PM,32.0,32.0,100,29.93,1.8,SW,10.4,-,N/A,Snow,Light Snow,220,2013-02-21 21:33:00
1:38 PM,32.0,32.0,100,29.92,2.0,SW,10.4,-,N/A,Snow,Light Snow,220,2013-02-21 21:38:00
1:43 PM,32.0,32.0,100,29.92,2.0,SSW,8.1,-,N/A,Snow,Light Snow,210,2013-02-21 21:43:00
1:53 PM,32.0,32.0,100,29.92,7.0,SSW,9.2,-,N/A,Rain,Light Rain,210,2013-02-21 21:53:00
1:58 PM,32.5,31.5,96,30.01,10.0,SSW,9.2,-,0.00,Rain,Light Rain,210,2013-02-21 21:58:00
2:03 PM,32.0,32.0,100,29.92,10.0,SW,13.8,-,N/A,Rain,Light Rain,220,2013-02-21 22:03:00
2:08 PM,32.0,32.0,100,29.93,10.0,SW,12.7,-,N/A,,Light Drizzle,220,2013-02-21 22:08:00
2:38 PM,33.8,32.0,93,29.93,10.0,SW,13.8,-,N/A,Rain,Light Rain,230,2013-02-21 22:38:00
2:58 PM,34.5,32.4,92,29.99,10.0,SSW,12.7,-,0.00,Rain,Light Rain,210,2013-02-21 22:58:00
2:59 PM,35.6,32.0,87,29.92,10.0,SSW,13.8,-,N/A,,Overcast,210,2013-02-21 22:59:00
3:00 PM,35.6,32.0,87,29.92,10.0,SW,12.7,-,N/A,Rain,Light Rain,220,2013-02-21 23:00:00
3:35 PM,35.6,32.0,87,29.92,10.0,SW,9.2,-,N/A,,Light Drizzle,230,2013-02-21 23:35:00
3:58 PM,36.1,32.0,85,29.99,10.0,SSW,12.7,-,0.00,,Light Drizzle,210,2013-02-21 23:58:00
4:04 PM,35.6,32.0,87,29.92,10.0,SW,11.5,-,N/A,,Scattered Clouds,220,2013-02-22 00:04:00
4:58 PM,35.2,30.0,81,29.99,10.0,SW,9.2,-,0.00,,Partly Cloudy,220,2013-02-22 00:58:00
5:58 PM,34.2,29.7,84,30.00,10.0,South,6.9,-,N/A,,Mostly Cloudy,190,2013-02-22 01:58:00
6:58 PM,34.0,29.5,84,30.01,10.0,South,10.4,-,N/A,,Scattered Clouds,190,2013-02-22 02:58:00
7:58 PM,32.4,28.9,87,30.00,10.0,South,11.5,-,N/A,,Mostly Cloudy,180,2013-02-22 03:58:00
8:50 PM,32.0,30.2,93,29.92,10.0,South,10.4,-,N/A,,Overcast,170,2013-02-22 04:50:00
8:58 PM,32.5,29.5,88,29.99,10.0,South,10.4,-,0.00,,Light Drizzle,180,2013-02-22 04:58:00
9:03 PM,32.0,30.2,93,29.93,10.0,South,10.4,-,N/A,,Overcast,180,2013-02-22 05:03:00
9:11 PM,32.0,30.2,93,29.92,10.0,South,11.5,-,N/A,,Light Drizzle,180,2013-02-22 05:11:00
9:21 PM,32.0,30.2,93,29.93,10.0,South,10.4,-,N/A,,Overcast,180,2013-02-22 05:21:00
9:28 PM,32.0,30.2,93,29.93,10.0,South,10.4,-,N/A,,Light Drizzle,190,2013-02-22 05:28:00
9:38 PM,32.0,30.2,93,29.93,10.0,South,11.5,-,N/A,,Overcast,180,2013-02-22 05:38:00
9:51 PM,32.0,30.2,93,29.93,10.0,South,10.4,-,N/A,,Light Drizzle,190,2013-02-22 05:51:00
9:53 PM,32.0,30.2,93,29.93,10.0,South,12.7,-,N/A,,Overcast,190,2013-02-22 05:53:00
9:58 PM,32.9,29.8,88,30.00,10.0,South,12.7,-,0.00,,Overcast,190,2013-02-22 05:58:00
10:00 PM,32.0,30.2,93,29.93,10.0,South,12.7,-,N/A,,Light Drizzle,190,2013-02-22 06:00:00
10:01 PM,32.0,30.2,93,29.93,10.0,South,12.7,-,N/A,,Overcast,190,2013-02-22 06:01:00
10:37 PM,32.0,30.2,93,29.93,10.0,South,12.7,-,N/A,,Overcast,180,2013-02-22 06:37:00
10:47 PM,32.0,30.2,93,29.93,10.0,South,12.7,-,N/A,,Mostly Cloudy,190,2013-02-22 06:47:00
10:58 PM,32.0,29.5,90,30.00,10.0,South,11.5,-,0.00,,Scattered Clouds,190,2013-02-22 06:58:00
11:16 PM,32.0,28.4,87,29.93,10.0,South,9.2,-,N/A,,Clear,190,2013-02-22 07:16:00
11:31 PM,32.0,28.4,87,29.92,10.0,South,10.4,-,N/A,,Clear,190,2013-02-22 07:31:00
11:51 PM,32.0,28.4,87,29.92,10.0,SSW,11.5,-,N/A,,Clear,200,2013-02-22 07:51:00
11:58 PM,30.6,28.6,92,29.99,10.0,South,11.5,-,0.00,,Clear,190,2013-02-22 07:58:00